sensor_id;sensor_type;location;lat;lon;timestamp;P1;durP1;ratioP1;P2;durP2;ratioP2
38123;SDS011;23934;47.998;9.832;2023-12-20T00:00:28;2.63;;;1.30;;
38123;SDS011;23934;47.998;9.832;2023-12-20T00:02:54;3.38;;;1.35;;
38123;SDS011;23934;47.998;9.832;2023-12-20T00:05:20;2.20;;;1.13;;
38123;SDS011;23934;47.998;9.832;2023-12-20T00:07:46;3.22;;;1.85;;
38123;SDS011;23934;47.998;9.832;2023-12-20T00:10:12;5.22;;;2.38;;
38123;SDS011;23934;47.998;9.832;2023-12-20T00:12:38;4.00;;;1.48;;
38123;SDS011;23934;47.998;9.832;2023-12-20T00:15:05;5.05;;;1.55;;
38123;SDS011;23934;47.998;9.832;2023-12-20T00:17:31;4.18;;;1.80;;
38123;SDS011;23934;47.998;9.832;2023-12-20T00:19:57;5.15;;;1.55;;
38123;SDS011;23934;47.998;9.832;2023-12-20T00:22:23;3.40;;;1.55;;
38123;SDS011;23934;47.998;9.832;2023-12-20T00:24:49;4.30;;;1.70;;
38123;SDS011;23934;47.998;9.832;2023-12-20T00:27:15;3.17;;;1.88;;
38123;SDS011;23934;47.998;9.832;2023-12-20T00:29:41;7.43;;;3.03;;
38123;SDS011;23934;47.998;9.832;2023-12-20T00:32:08;5.90;;;2.08;;
38123;SDS011;23934;47.998;9.832;2023-12-20T00:34:34;5.82;;;2.40;;
38123;SDS011;23934;47.998;9.832;2023-12-20T00:37:00;5.00;;;2.42;;
38123;SDS011;23934;47.998;9.832;2023-12-20T00:39:25;6.53;;;2.60;;
38123;SDS011;23934;47.998;9.832;2023-12-20T00:41:51;6.22;;;1.92;;
38123;SDS011;23934;47.998;9.832;2023-12-20T00:44:17;2.95;;;1.65;;
38123;SDS011;23934;47.998;9.832;2023-12-20T00:46:43;5.28;;;2.40;;
38123;SDS011;23934;47.998;9.832;2023-12-20T00:49:09;8.60;;;2.60;;
38123;SDS011;23934;47.998;9.832;2023-12-20T00:51:35;7.40;;;3.15;;
38123;SDS011;23934;47.998;9.832;2023-12-20T00:54:01;10.10;;;2.53;;
38123;SDS011;23934;47.998;9.832;2023-12-20T00:56:27;9.88;;;3.53;;
38123;SDS011;23934;47.998;9.832;2023-12-20T00:58:53;7.55;;;2.88;;
38123;SDS011;23934;47.998;9.832;2023-12-20T01:01:19;7.60;;;2.67;;
38123;SDS011;23934;47.998;9.832;2023-12-20T01:03:45;8.18;;;2.75;;
38123;SDS011;23934;47.998;9.832;2023-12-20T01:06:11;7.13;;;3.47;;
38123;SDS011;23934;47.998;9.832;2023-12-20T01:08:37;10.63;;;3.08;;
38123;SDS011;23934;47.998;9.832;2023-12-20T01:11:03;5.35;;;1.58;;
38123;SDS011;23934;47.998;9.832;2023-12-20T01:13:30;3.38;;;1.88;;
38123;SDS011;23934;47.998;9.832;2023-12-20T01:15:56;5.55;;;2.60;;
38123;SDS011;23934;47.998;9.832;2023-12-20T01:18:22;6.22;;;2.40;;
38123;SDS011;23934;47.998;9.832;2023-12-20T01:20:48;7.32;;;1.88;;
38123;SDS011;23934;47.998;9.832;2023-12-20T01:23:14;5.78;;;2.75;;
38123;SDS011;23934;47.998;9.832;2023-12-20T01:25:40;2.42;;;1.67;;
38123;SDS011;23934;47.998;9.832;2023-12-20T01:28:06;4.45;;;2.30;;
38123;SDS011;23934;47.998;9.832;2023-12-20T01:30:32;4.55;;;1.83;;
38123;SDS011;23934;47.998;9.832;2023-12-20T01:32:59;3.80;;;2.00;;
38123;SDS011;23934;47.998;9.832;2023-12-20T01:35:26;5.95;;;1.90;;
38123;SDS011;23934;47.998;9.832;2023-12-20T01:37:51;2.38;;;1.15;;
38123;SDS011;23934;47.998;9.832;2023-12-20T01:40:21;5.65;;;2.08;;
38123;SDS011;23934;47.998;9.832;2023-12-20T01:42:47;2.63;;;1.80;;
38123;SDS011;23934;47.998;9.832;2023-12-20T01:45:13;11.10;;;2.15;;
38123;SDS011;23934;47.998;9.832;2023-12-20T01:47:39;6.97;;;2.60;;
38123;SDS011;23934;47.998;9.832;2023-12-20T01:50:06;6.63;;;3.50;;
38123;SDS011;23934;47.998;9.832;2023-12-20T01:52:33;3.10;;;1.58;;
38123;SDS011;23934;47.998;9.832;2023-12-20T01:55:00;4.47;;;1.67;;
38123;SDS011;23934;47.998;9.832;2023-12-20T01:57:28;4.65;;;1.88;;
38123;SDS011;23934;47.998;9.832;2023-12-20T01:59:54;4.70;;;1.58;;
38123;SDS011;23934;47.998;9.832;2023-12-20T02:02:20;8.68;;;2.10;;
38123;SDS011;23934;47.998;9.832;2023-12-20T02:04:46;2.75;;;1.52;;
38123;SDS011;23934;47.998;9.832;2023-12-20T02:07:12;4.03;;;1.55;;
38123;SDS011;23934;47.998;9.832;2023-12-20T02:09:38;7.13;;;2.58;;
38123;SDS011;23934;47.998;9.832;2023-12-20T02:12:05;3.53;;;1.98;;
38123;SDS011;23934;47.998;9.832;2023-12-20T02:14:31;2.38;;;1.55;;
38123;SDS011;23934;47.998;9.832;2023-12-20T02:16:57;6.95;;;3.05;;
38123;SDS011;23934;47.998;9.832;2023-12-20T02:19:23;5.10;;;2.17;;
38123;SDS011;23934;47.998;9.832;2023-12-20T02:21:49;6.53;;;2.25;;
38123;SDS011;23934;47.998;9.832;2023-12-20T02:24:15;5.57;;;2.50;;
38123;SDS011;23934;47.998;9.832;2023-12-20T02:26:42;6.53;;;2.78;;
38123;SDS011;23934;47.998;9.832;2023-12-20T02:29:08;5.35;;;2.03;;
38123;SDS011;23934;47.998;9.832;2023-12-20T02:31:34;5.55;;;1.85;;
38123;SDS011;23934;47.998;9.832;2023-12-20T02:34:00;5.05;;;1.48;;
38123;SDS011;23934;47.998;9.832;2023-12-20T02:36:26;3.35;;;1.67;;
38123;SDS011;23934;47.998;9.832;2023-12-20T02:38:52;6.10;;;2.55;;
38123;SDS011;23934;47.998;9.832;2023-12-20T02:41:18;5.93;;;2.13;;
38123;SDS011;23934;47.998;9.832;2023-12-20T02:43:44;4.35;;;2.17;;
38123;SDS011;23934;47.998;9.832;2023-12-20T02:46:10;3.55;;;1.45;;
38123;SDS011;23934;47.998;9.832;2023-12-20T02:48:37;3.22;;;1.77;;
38123;SDS011;23934;47.998;9.832;2023-12-20T02:51:03;5.07;;;1.77;;
38123;SDS011;23934;47.998;9.832;2023-12-20T02:53:29;5.13;;;2.20;;
38123;SDS011;23934;47.998;9.832;2023-12-20T02:55:55;4.88;;;2.13;;
38123;SDS011;23934;47.998;9.832;2023-12-20T02:58:21;8.82;;;1.75;;
38123;SDS011;23934;47.998;9.832;2023-12-20T03:00:47;4.75;;;2.20;;
38123;SDS011;23934;47.998;9.832;2023-12-20T03:03:13;4.60;;;1.13;;
38123;SDS011;23934;47.998;9.832;2023-12-20T03:05:39;10.07;;;2.78;;
38123;SDS011;23934;47.998;9.832;2023-12-20T03:08:05;4.63;;;2.05;;
38123;SDS011;23934;47.998;9.832;2023-12-20T03:10:31;3.60;;;1.88;;
38123;SDS011;23934;47.998;9.832;2023-12-20T03:12:56;3.65;;;1.48;;
38123;SDS011;23934;47.998;9.832;2023-12-20T03:15:22;5.75;;;2.08;;
38123;SDS011;23934;47.998;9.832;2023-12-20T03:17:48;4.25;;;1.85;;
38123;SDS011;23934;47.998;9.832;2023-12-20T03:20:14;3.33;;;1.60;;
38123;SDS011;23934;47.998;9.832;2023-12-20T03:22:40;3.88;;;1.70;;
38123;SDS011;23934;47.998;9.832;2023-12-20T03:25:06;4.38;;;1.38;;
38123;SDS011;23934;47.998;9.832;2023-12-20T03:27:32;4.60;;;2.33;;
38123;SDS011;23934;47.998;9.832;2023-12-20T03:29:58;6.95;;;2.13;;
38123;SDS011;23934;47.998;9.832;2023-12-20T03:32:24;2.80;;;1.35;;
38123;SDS011;23934;47.998;9.832;2023-12-20T03:34:50;9.85;;;2.78;;
38123;SDS011;23934;47.998;9.832;2023-12-20T03:37:16;7.88;;;2.42;;
38123;SDS011;23934;47.998;9.832;2023-12-20T03:39:42;11.00;;;3.45;;
38123;SDS011;23934;47.998;9.832;2023-12-20T03:42:08;4.65;;;2.22;;
38123;SDS011;23934;47.998;9.832;2023-12-20T03:44:34;6.97;;;3.42;;
38123;SDS011;23934;47.998;9.832;2023-12-20T03:47:00;10.93;;;3.25;;
38123;SDS011;23934;47.998;9.832;2023-12-20T03:49:26;7.45;;;3.67;;
38123;SDS011;23934;47.998;9.832;2023-12-20T03:51:52;14.23;;;3.38;;
38123;SDS011;23934;47.998;9.832;2023-12-20T03:54:18;4.32;;;1.92;;
38123;SDS011;23934;47.998;9.832;2023-12-20T03:56:44;15.23;;;3.90;;
38123;SDS011;23934;47.998;9.832;2023-12-20T03:59:10;10.35;;;3.38;;
38123;SDS011;23934;47.998;9.832;2023-12-20T04:01:36;11.57;;;4.75;;
38123;SDS011;23934;47.998;9.832;2023-12-20T04:04:02;11.18;;;4.60;;
38123;SDS011;23934;47.998;9.832;2023-12-20T04:06:28;11.45;;;4.03;;
38123;SDS011;23934;47.998;9.832;2023-12-20T04:08:54;14.43;;;5.13;;
38123;SDS011;23934;47.998;9.832;2023-12-20T04:11:20;10.93;;;4.07;;
38123;SDS011;23934;47.998;9.832;2023-12-20T04:13:46;13.88;;;4.93;;
38123;SDS011;23934;47.998;9.832;2023-12-20T04:16:12;7.88;;;3.80;;
38123;SDS011;23934;47.998;9.832;2023-12-20T04:18:38;8.07;;;3.42;;
38123;SDS011;23934;47.998;9.832;2023-12-20T04:21:04;14.15;;;4.70;;
38123;SDS011;23934;47.998;9.832;2023-12-20T04:23:30;7.53;;;3.42;;
38123;SDS011;23934;47.998;9.832;2023-12-20T04:25:56;6.93;;;3.70;;
38123;SDS011;23934;47.998;9.832;2023-12-20T04:28:21;6.28;;;3.40;;
38123;SDS011;23934;47.998;9.832;2023-12-20T04:30:47;19.60;;;4.35;;
38123;SDS011;23934;47.998;9.832;2023-12-20T04:33:13;14.80;;;4.47;;
38123;SDS011;23934;47.998;9.832;2023-12-20T04:35:39;8.48;;;4.00;;
38123;SDS011;23934;47.998;9.832;2023-12-20T04:38:07;11.52;;;4.28;;
38123;SDS011;23934;47.998;9.832;2023-12-20T04:40:33;11.60;;;4.55;;
38123;SDS011;23934;47.998;9.832;2023-12-20T04:42:59;5.93;;;3.65;;
38123;SDS011;23934;47.998;9.832;2023-12-20T04:45:25;12.90;;;5.28;;
38123;SDS011;23934;47.998;9.832;2023-12-20T04:47:51;9.77;;;4.82;;
38123;SDS011;23934;47.998;9.832;2023-12-20T04:50:17;16.33;;;6.60;;
38123;SDS011;23934;47.998;9.832;2023-12-20T04:52:44;7.38;;;3.38;;
38123;SDS011;23934;47.998;9.832;2023-12-20T04:55:10;7.53;;;2.72;;
38123;SDS011;23934;47.998;9.832;2023-12-20T04:57:36;5.63;;;2.83;;
38123;SDS011;23934;47.998;9.832;2023-12-20T05:00:02;5.55;;;3.22;;
38123;SDS011;23934;47.998;9.832;2023-12-20T05:02:29;6.90;;;3.25;;
38123;SDS011;23934;47.998;9.832;2023-12-20T05:04:55;17.80;;;4.97;;
38123;SDS011;23934;47.998;9.832;2023-12-20T05:07:21;11.48;;;4.00;;
38123;SDS011;23934;47.998;9.832;2023-12-20T05:09:47;19.73;;;5.28;;
38123;SDS011;23934;47.998;9.832;2023-12-20T05:12:13;12.50;;;2.72;;
38123;SDS011;23934;47.998;9.832;2023-12-20T05:14:39;5.97;;;2.45;;
38123;SDS011;23934;47.998;9.832;2023-12-20T05:17:05;6.88;;;3.35;;
38123;SDS011;23934;47.998;9.832;2023-12-20T05:19:31;7.65;;;3.78;;
38123;SDS011;23934;47.998;9.832;2023-12-20T05:22:00;13.00;;;5.35;;
38123;SDS011;23934;47.998;9.832;2023-12-20T05:24:26;5.28;;;3.28;;
38123;SDS011;23934;47.998;9.832;2023-12-20T05:26:51;6.57;;;3.15;;
38123;SDS011;23934;47.998;9.832;2023-12-20T05:29:17;11.40;;;5.00;;
38123;SDS011;23934;47.998;9.832;2023-12-20T05:31:43;6.80;;;2.92;;
38123;SDS011;23934;47.998;9.832;2023-12-20T05:34:09;11.07;;;4.72;;
38123;SDS011;23934;47.998;9.832;2023-12-20T05:36:36;13.07;;;5.00;;
38123;SDS011;23934;47.998;9.832;2023-12-20T05:39:02;12.23;;;3.97;;
38123;SDS011;23934;47.998;9.832;2023-12-20T05:41:30;5.88;;;3.72;;
38123;SDS011;23934;47.998;9.832;2023-12-20T05:43:56;10.57;;;3.83;;
38123;SDS011;23934;47.998;9.832;2023-12-20T05:46:25;10.57;;;4.60;;
38123;SDS011;23934;47.998;9.832;2023-12-20T05:48:52;9.02;;;3.92;;
38123;SDS011;23934;47.998;9.832;2023-12-20T05:51:18;22.98;;;4.25;;
38123;SDS011;23934;47.998;9.832;2023-12-20T05:53:44;11.57;;;4.05;;
38123;SDS011;23934;47.998;9.832;2023-12-20T05:56:10;8.50;;;3.60;;
38123;SDS011;23934;47.998;9.832;2023-12-20T05:58:38;19.95;;;7.18;;
38123;SDS011;23934;47.998;9.832;2023-12-20T06:01:05;16.05;;;4.95;;
38123;SDS011;23934;47.998;9.832;2023-12-20T06:03:32;13.85;;;5.43;;
38123;SDS011;23934;47.998;9.832;2023-12-20T06:05:58;13.63;;;5.63;;
38123;SDS011;23934;47.998;9.832;2023-12-20T06:08:25;22.58;;;7.28;;
38123;SDS011;23934;47.998;9.832;2023-12-20T06:10:51;9.40;;;4.88;;
38123;SDS011;23934;47.998;9.832;2023-12-20T06:13:17;11.55;;;4.47;;
38123;SDS011;23934;47.998;9.832;2023-12-20T06:15:43;13.70;;;5.35;;
38123;SDS011;23934;47.998;9.832;2023-12-20T06:18:09;11.38;;;3.85;;
38123;SDS011;23934;47.998;9.832;2023-12-20T06:20:35;10.48;;;4.65;;
38123;SDS011;23934;47.998;9.832;2023-12-20T06:23:01;12.45;;;4.97;;
38123;SDS011;23934;47.998;9.832;2023-12-20T06:25:27;12.68;;;3.83;;
38123;SDS011;23934;47.998;9.832;2023-12-20T06:27:53;12.30;;;5.07;;
38123;SDS011;23934;47.998;9.832;2023-12-20T06:30:19;15.05;;;4.80;;
38123;SDS011;23934;47.998;9.832;2023-12-20T06:32:45;8.57;;;3.70;;
38123;SDS011;23934;47.998;9.832;2023-12-20T06:35:12;8.48;;;3.75;;
38123;SDS011;23934;47.998;9.832;2023-12-20T06:37:38;24.73;;;6.15;;
38123;SDS011;23934;47.998;9.832;2023-12-20T06:40:07;11.20;;;4.07;;
38123;SDS011;23934;47.998;9.832;2023-12-20T06:42:33;11.63;;;4.10;;
38123;SDS011;23934;47.998;9.832;2023-12-20T06:44:59;8.00;;;3.42;;
38123;SDS011;23934;47.998;9.832;2023-12-20T06:47:25;10.00;;;3.95;;
38123;SDS011;23934;47.998;9.832;2023-12-20T06:49:51;7.10;;;3.30;;
38123;SDS011;23934;47.998;9.832;2023-12-20T06:52:17;17.48;;;6.35;;
38123;SDS011;23934;47.998;9.832;2023-12-20T06:54:43;7.25;;;4.32;;
38123;SDS011;23934;47.998;9.832;2023-12-20T06:57:09;10.50;;;5.10;;
38123;SDS011;23934;47.998;9.832;2023-12-20T06:59:38;12.73;;;4.38;;
38123;SDS011;23934;47.998;9.832;2023-12-20T07:02:05;12.15;;;5.00;;
38123;SDS011;23934;47.998;9.832;2023-12-20T07:04:31;10.55;;;4.50;;
38123;SDS011;23934;47.998;9.832;2023-12-20T07:06:57;6.00;;;3.20;;
38123;SDS011;23934;47.998;9.832;2023-12-20T07:09:25;6.25;;;3.95;;
38123;SDS011;23934;47.998;9.832;2023-12-20T07:11:51;8.60;;;3.33;;
38123;SDS011;23934;47.998;9.832;2023-12-20T07:14:17;13.45;;;4.03;;
38123;SDS011;23934;47.998;9.832;2023-12-20T07:16:43;16.02;;;5.78;;
38123;SDS011;23934;47.998;9.832;2023-12-20T07:19:09;11.10;;;3.95;;
38123;SDS011;23934;47.998;9.832;2023-12-20T07:21:35;10.65;;;3.95;;
38123;SDS011;23934;47.998;9.832;2023-12-20T07:24:01;20.48;;;5.63;;
38123;SDS011;23934;47.998;9.832;2023-12-20T07:26:27;8.63;;;3.90;;
38123;SDS011;23934;47.998;9.832;2023-12-20T07:28:53;10.32;;;4.15;;
38123;SDS011;23934;47.998;9.832;2023-12-20T07:31:19;9.77;;;4.22;;
38123;SDS011;23934;47.998;9.832;2023-12-20T07:33:44;15.80;;;5.82;;
38123;SDS011;23934;47.998;9.832;2023-12-20T07:36:11;10.30;;;4.43;;
38123;SDS011;23934;47.998;9.832;2023-12-20T07:38:37;12.10;;;5.28;;
38123;SDS011;23934;47.998;9.832;2023-12-20T07:41:03;10.82;;;4.60;;
38123;SDS011;23934;47.998;9.832;2023-12-20T07:43:29;14.13;;;4.38;;
38123;SDS011;23934;47.998;9.832;2023-12-20T07:45:55;10.60;;;4.05;;
38123;SDS011;23934;47.998;9.832;2023-12-20T07:48:21;17.40;;;6.10;;
38123;SDS011;23934;47.998;9.832;2023-12-20T07:50:47;12.77;;;3.50;;
38123;SDS011;23934;47.998;9.832;2023-12-20T07:53:13;9.88;;;4.43;;
38123;SDS011;23934;47.998;9.832;2023-12-20T07:55:39;12.45;;;5.22;;
38123;SDS011;23934;47.998;9.832;2023-12-20T07:58:05;12.10;;;4.78;;
38123;SDS011;23934;47.998;9.832;2023-12-20T08:00:31;14.73;;;5.18;;
38123;SDS011;23934;47.998;9.832;2023-12-20T08:02:57;9.38;;;4.07;;
38123;SDS011;23934;47.998;9.832;2023-12-20T08:05:23;11.30;;;4.53;;
38123;SDS011;23934;47.998;9.832;2023-12-20T08:07:49;10.90;;;3.83;;
38123;SDS011;23934;47.998;9.832;2023-12-20T08:10:15;13.15;;;5.45;;
38123;SDS011;23934;47.998;9.832;2023-12-20T08:12:43;12.25;;;4.38;;
38123;SDS011;23934;47.998;9.832;2023-12-20T08:15:09;12.90;;;4.03;;
38123;SDS011;23934;47.998;9.832;2023-12-20T08:17:35;7.35;;;3.88;;
38123;SDS011;23934;47.998;9.832;2023-12-20T08:20:01;12.05;;;4.93;;
38123;SDS011;23934;47.998;9.832;2023-12-20T08:22:27;16.33;;;5.82;;
38123;SDS011;23934;47.998;9.832;2023-12-20T08:24:53;14.25;;;5.25;;
38123;SDS011;23934;47.998;9.832;2023-12-20T08:27:19;14.45;;;4.60;;
38123;SDS011;23934;47.998;9.832;2023-12-20T08:29:44;11.57;;;5.00;;
38123;SDS011;23934;47.998;9.832;2023-12-20T08:32:10;12.43;;;4.30;;
38123;SDS011;23934;47.998;9.832;2023-12-20T08:34:36;9.23;;;3.58;;
38123;SDS011;23934;47.998;9.832;2023-12-20T08:37:03;10.98;;;3.70;;
38123;SDS011;23934;47.998;9.832;2023-12-20T08:39:29;7.50;;;2.80;;
38123;SDS011;23934;47.998;9.832;2023-12-20T08:41:55;8.98;;;2.97;;
38123;SDS011;23934;47.998;9.832;2023-12-20T08:44:21;8.95;;;3.92;;
38123;SDS011;23934;47.998;9.832;2023-12-20T08:46:47;13.30;;;4.63;;
38123;SDS011;23934;47.998;9.832;2023-12-20T08:49:13;7.47;;;3.55;;
38123;SDS011;23934;47.998;9.832;2023-12-20T08:51:39;8.82;;;3.17;;
38123;SDS011;23934;47.998;9.832;2023-12-20T08:54:06;7.93;;;3.75;;
38123;SDS011;23934;47.998;9.832;2023-12-20T08:56:33;6.95;;;3.38;;
38123;SDS011;23934;47.998;9.832;2023-12-20T08:58:59;5.78;;;2.15;;
38123;SDS011;23934;47.998;9.832;2023-12-20T09:01:25;11.75;;;4.35;;
38123;SDS011;23934;47.998;9.832;2023-12-20T09:03:51;15.15;;;5.03;;
38123;SDS011;23934;47.998;9.832;2023-12-20T09:06:17;12.98;;;4.35;;
38123;SDS011;23934;47.998;9.832;2023-12-20T09:08:42;9.27;;;3.30;;
38123;SDS011;23934;47.998;9.832;2023-12-20T09:11:08;14.48;;;3.92;;
38123;SDS011;23934;47.998;9.832;2023-12-20T09:13:35;9.75;;;4.50;;
38123;SDS011;23934;47.998;9.832;2023-12-20T09:16:01;9.18;;;3.85;;
38123;SDS011;23934;47.998;9.832;2023-12-20T09:18:27;5.78;;;3.25;;
38123;SDS011;23934;47.998;9.832;2023-12-20T09:20:52;9.68;;;3.53;;
38123;SDS011;23934;47.998;9.832;2023-12-20T09:23:18;8.13;;;3.55;;
38123;SDS011;23934;47.998;9.832;2023-12-20T09:25:45;49.13;;;12.15;;
38123;SDS011;23934;47.998;9.832;2023-12-20T09:28:11;27.13;;;8.35;;
38123;SDS011;23934;47.998;9.832;2023-12-20T09:30:37;27.85;;;9.52;;
38123;SDS011;23934;47.998;9.832;2023-12-20T09:33:05;16.52;;;5.43;;
38123;SDS011;23934;47.998;9.832;2023-12-20T09:35:32;6.13;;;3.50;;
38123;SDS011;23934;47.998;9.832;2023-12-20T09:37:58;9.75;;;3.40;;
38123;SDS011;23934;47.998;9.832;2023-12-20T09:40:25;5.75;;;2.67;;
38123;SDS011;23934;47.998;9.832;2023-12-20T09:45:19;8.13;;;3.28;;
38123;SDS011;23934;47.998;9.832;2023-12-20T09:47:46;9.27;;;3.15;;
38123;SDS011;23934;47.998;9.832;2023-12-20T09:50:12;9.15;;;4.15;;
38123;SDS011;23934;47.998;9.832;2023-12-20T09:52:38;6.97;;;3.42;;
38123;SDS011;23934;47.998;9.832;2023-12-20T09:55:05;10.18;;;3.60;;
38123;SDS011;23934;47.998;9.832;2023-12-20T09:57:32;12.82;;;4.75;;
38123;SDS011;23934;47.998;9.832;2023-12-20T09:59:58;10.68;;;4.65;;
38123;SDS011;23934;47.998;9.832;2023-12-20T10:02:24;10.40;;;4.93;;
38123;SDS011;23934;47.998;9.832;2023-12-20T10:04:52;7.57;;;3.25;;
38123;SDS011;23934;47.998;9.832;2023-12-20T10:07:18;6.07;;;3.15;;
38123;SDS011;23934;47.998;9.832;2023-12-20T10:09:44;7.63;;;3.78;;
38123;SDS011;23934;47.998;9.832;2023-12-20T10:12:11;6.78;;;3.13;;
38123;SDS011;23934;47.998;9.832;2023-12-20T10:14:38;5.68;;;2.95;;
38123;SDS011;23934;47.998;9.832;2023-12-20T10:17:04;4.68;;;1.75;;
38123;SDS011;23934;47.998;9.832;2023-12-20T10:19:32;5.63;;;2.67;;
38123;SDS011;23934;47.998;9.832;2023-12-20T10:22:01;13.23;;;3.30;;
38123;SDS011;23934;47.998;9.832;2023-12-20T10:24:29;6.22;;;2.50;;
38123;SDS011;23934;47.998;9.832;2023-12-20T10:27:05;10.18;;;3.08;;
38123;SDS011;23934;47.998;9.832;2023-12-20T10:29:32;6.60;;;3.10;;
38123;SDS011;23934;47.998;9.832;2023-12-20T10:31:58;7.95;;;2.90;;
38123;SDS011;23934;47.998;9.832;2023-12-20T10:34:24;8.82;;;4.03;;
38123;SDS011;23934;47.998;9.832;2023-12-20T10:36:50;6.57;;;2.85;;
38123;SDS011;23934;47.998;9.832;2023-12-20T10:39:17;8.85;;;2.63;;
38123;SDS011;23934;47.998;9.832;2023-12-20T10:41:45;5.45;;;1.88;;
38123;SDS011;23934;47.998;9.832;2023-12-20T10:44:11;4.65;;;2.42;;
38123;SDS011;23934;47.998;9.832;2023-12-20T10:46:38;7.40;;;3.22;;
38123;SDS011;23934;47.998;9.832;2023-12-20T10:49:05;3.90;;;2.03;;
38123;SDS011;23934;47.998;9.832;2023-12-20T10:51:32;2.90;;;1.77;;
38123;SDS011;23934;47.998;9.832;2023-12-20T10:54:00;5.30;;;2.63;;
38123;SDS011;23934;47.998;9.832;2023-12-20T10:56:26;4.10;;;2.08;;
38123;SDS011;23934;47.998;9.832;2023-12-20T10:58:57;4.72;;;2.83;;
38123;SDS011;23934;47.998;9.832;2023-12-20T11:01:27;2.35;;;1.23;;
38123;SDS011;23934;47.998;9.832;2023-12-20T11:03:54;4.80;;;1.80;;
38123;SDS011;23934;47.998;9.832;2023-12-20T11:06:33;3.40;;;1.58;;
38123;SDS011;23934;47.998;9.832;2023-12-20T11:11:39;2.35;;;1.25;;
38123;SDS011;23934;47.998;9.832;2023-12-20T11:14:11;3.95;;;1.70;;
38123;SDS011;23934;47.998;9.832;2023-12-20T11:16:39;4.53;;;1.67;;
38123;SDS011;23934;47.998;9.832;2023-12-20T11:19:07;4.13;;;1.70;;
38123;SDS011;23934;47.998;9.832;2023-12-20T11:21:33;6.47;;;2.30;;
38123;SDS011;23934;47.998;9.832;2023-12-20T11:23:59;8.30;;;1.45;;
38123;SDS011;23934;47.998;9.832;2023-12-20T11:26:28;3.72;;;1.27;;
38123;SDS011;23934;47.998;9.832;2023-12-20T11:29:22;2.95;;;1.48;;
38123;SDS011;23934;47.998;9.832;2023-12-20T11:31:40;6.22;;;1.48;;
38123;SDS011;23934;47.998;9.832;2023-12-20T11:34:13;3.17;;;1.13;;
38123;SDS011;23934;47.998;9.832;2023-12-20T11:36:39;3.83;;;1.95;;
38123;SDS011;23934;47.998;9.832;2023-12-20T11:39:05;4.00;;;1.35;;
38123;SDS011;23934;47.998;9.832;2023-12-20T11:41:33;3.83;;;1.05;;
38123;SDS011;23934;47.998;9.832;2023-12-20T11:43:59;3.30;;;1.50;;
38123;SDS011;23934;47.998;9.832;2023-12-20T11:46:26;1.95;;;1.20;;
38123;SDS011;23934;47.998;9.832;2023-12-20T11:48:52;4.30;;;1.17;;
38123;SDS011;23934;47.998;9.832;2023-12-20T11:51:18;5.47;;;1.88;;
38123;SDS011;23934;47.998;9.832;2023-12-20T11:53:44;2.40;;;1.38;;
38123;SDS011;23934;47.998;9.832;2023-12-20T11:56:10;1.95;;;1.05;;
38123;SDS011;23934;47.998;9.832;2023-12-20T11:58:36;6.43;;;1.40;;
38123;SDS011;23934;47.998;9.832;2023-12-20T12:01:02;2.38;;;1.00;;
38123;SDS011;23934;47.998;9.832;2023-12-20T12:03:29;3.95;;;1.10;;
38123;SDS011;23934;47.998;9.832;2023-12-20T12:05:55;1.10;;;0.95;;
38123;SDS011;23934;47.998;9.832;2023-12-20T12:08:21;4.68;;;1.77;;
38123;SDS011;23934;47.998;9.832;2023-12-20T12:10:47;1.80;;;0.75;;
38123;SDS011;23934;47.998;9.832;2023-12-20T12:13:13;3.45;;;1.90;;
38123;SDS011;23934;47.998;9.832;2023-12-20T12:15:40;1.63;;;0.65;;
38123;SDS011;23934;47.998;9.832;2023-12-20T12:18:09;0.70;;;0.70;;
38123;SDS011;23934;47.998;9.832;2023-12-20T12:20:35;2.55;;;0.77;;
38123;SDS011;23934;47.998;9.832;2023-12-20T12:23:05;0.75;;;0.50;;
38123;SDS011;23934;47.998;9.832;2023-12-20T12:25:32;1.17;;;0.25;;
38123;SDS011;23934;47.998;9.832;2023-12-20T12:27:58;1.55;;;0.73;;
38123;SDS011;23934;47.998;9.832;2023-12-20T12:30:24;7.80;;;0.73;;
38123;SDS011;23934;47.998;9.832;2023-12-20T12:32:51;0.65;;;0.40;;
38123;SDS011;23934;47.998;9.832;2023-12-20T12:35:17;4.95;;;1.20;;
38123;SDS011;23934;47.998;9.832;2023-12-20T12:37:43;0.95;;;0.50;;
38123;SDS011;23934;47.998;9.832;2023-12-20T12:40:10;2.80;;;0.98;;
38123;SDS011;23934;47.998;9.832;2023-12-20T12:42:36;0.50;;;0.50;;
38123;SDS011;23934;47.998;9.832;2023-12-20T12:45:03;0.47;;;0.40;;
38123;SDS011;23934;47.998;9.832;2023-12-20T12:47:29;1.08;;;0.60;;
38123;SDS011;23934;47.998;9.832;2023-12-20T12:49:55;0.57;;;0.50;;
38123;SDS011;23934;47.998;9.832;2023-12-20T12:52:21;1.05;;;0.70;;
38123;SDS011;23934;47.998;9.832;2023-12-20T12:54:48;0.30;;;0.30;;
38123;SDS011;23934;47.998;9.832;2023-12-20T12:57:14;1.27;;;0.73;;
38123;SDS011;23934;47.998;9.832;2023-12-20T12:59:43;0.77;;;0.60;;
38123;SDS011;23934;47.998;9.832;2023-12-20T13:02:11;4.97;;;1.10;;
38123;SDS011;23934;47.998;9.832;2023-12-20T13:04:38;1.88;;;0.57;;
38123;SDS011;23934;47.998;9.832;2023-12-20T13:07:04;1.65;;;0.57;;
38123;SDS011;23934;47.998;9.832;2023-12-20T13:09:30;4.03;;;1.42;;
38123;SDS011;23934;47.998;9.832;2023-12-20T13:11:56;1.10;;;0.65;;
38123;SDS011;23934;47.998;9.832;2023-12-20T13:14:22;1.90;;;0.90;;
38123;SDS011;23934;47.998;9.832;2023-12-20T13:16:48;1.20;;;0.98;;
38123;SDS011;23934;47.998;9.832;2023-12-20T13:19:14;1.63;;;0.65;;
38123;SDS011;23934;47.998;9.832;2023-12-20T13:21:40;2.53;;;0.95;;
38123;SDS011;23934;47.998;9.832;2023-12-20T13:24:06;1.63;;;0.55;;
38123;SDS011;23934;47.998;9.832;2023-12-20T13:26:32;0.88;;;0.50;;
38123;SDS011;23934;47.998;9.832;2023-12-20T13:28:58;0.50;;;0.50;;
38123;SDS011;23934;47.998;9.832;2023-12-20T13:31:24;1.35;;;0.82;;
38123;SDS011;23934;47.998;9.832;2023-12-20T13:33:50;0.75;;;0.63;;
38123;SDS011;23934;47.998;9.832;2023-12-20T13:36:17;3.70;;;0.77;;
38123;SDS011;23934;47.998;9.832;2023-12-20T13:38:43;1.45;;;0.40;;
38123;SDS011;23934;47.998;9.832;2023-12-20T13:41:09;0.98;;;0.40;;
38123;SDS011;23934;47.998;9.832;2023-12-20T13:43:35;0.77;;;0.40;;
38123;SDS011;23934;47.998;9.832;2023-12-20T13:46:01;3.65;;;0.60;;
38123;SDS011;23934;47.998;9.832;2023-12-20T13:48:27;0.80;;;0.47;;
38123;SDS011;23934;47.998;9.832;2023-12-20T13:50:53;0.63;;;0.35;;
38123;SDS011;23934;47.998;9.832;2023-12-20T13:53:19;2.28;;;0.57;;
38123;SDS011;23934;47.998;9.832;2023-12-20T13:55:45;3.42;;;1.17;;
38123;SDS011;23934;47.998;9.832;2023-12-20T13:58:11;0.77;;;0.40;;
38123;SDS011;23934;47.998;9.832;2023-12-20T14:00:37;0.75;;;0.40;;
38123;SDS011;23934;47.998;9.832;2023-12-20T14:03:04;1.70;;;0.77;;
38123;SDS011;23934;47.998;9.832;2023-12-20T14:05:30;2.03;;;0.85;;
38123;SDS011;23934;47.998;9.832;2023-12-20T14:07:56;3.28;;;1.13;;
38123;SDS011;23934;47.998;9.832;2023-12-20T14:10:22;0.50;;;0.35;;
38123;SDS011;23934;47.998;9.832;2023-12-20T14:12:52;2.33;;;0.75;;
38123;SDS011;23934;47.998;9.832;2023-12-20T14:15:18;1.98;;;0.65;;
38123;SDS011;23934;47.998;9.832;2023-12-20T14:17:44;2.28;;;0.82;;
38123;SDS011;23934;47.998;9.832;2023-12-20T14:20:10;1.58;;;0.55;;
38123;SDS011;23934;47.998;9.832;2023-12-20T14:22:40;1.33;;;0.63;;
38123;SDS011;23934;47.998;9.832;2023-12-20T14:25:10;0.45;;;0.45;;
38123;SDS011;23934;47.998;9.832;2023-12-20T14:27:37;2.08;;;0.50;;
38123;SDS011;23934;47.998;9.832;2023-12-20T14:30:03;1.42;;;0.60;;
38123;SDS011;23934;47.998;9.832;2023-12-20T14:32:29;1.20;;;0.50;;
38123;SDS011;23934;47.998;9.832;2023-12-20T14:34:55;1.60;;;0.60;;
38123;SDS011;23934;47.998;9.832;2023-12-20T14:37:21;1.20;;;0.70;;
38123;SDS011;23934;47.998;9.832;2023-12-20T14:39:47;8.45;;;0.60;;
38123;SDS011;23934;47.998;9.832;2023-12-20T14:42:13;0.45;;;0.45;;